createdAt,value
2019-01-15T00:02:09.306Z,2.92
2019-01-15T00:04:39.405Z,2.60
2019-01-15T00:07:09.535Z,2.70
2019-01-15T00:09:39.660Z,2.60
2019-01-15T00:12:10.743Z,3.25
2019-01-15T00:14:41.053Z,2.40
2019-01-15T00:17:11.436Z,2.30
2019-01-15T00:19:41.619Z,3.73
2019-01-15T00:22:11.766Z,3.10
2019-01-15T00:24:42.285Z,2.52
2019-01-15T00:27:12.462Z,2.40
2019-01-15T00:29:42.667Z,2.57
2019-01-15T00:32:13.271Z,2.25
2019-01-15T00:34:43.355Z,2.27
2019-01-15T00:37:13.486Z,2.13
2019-01-15T00:39:43.669Z,2.57
2019-01-15T00:42:15.475Z,2.20
2019-01-15T00:44:46.464Z,2.33
2019-01-15T00:47:16.858Z,2.43
2019-01-15T00:49:47.257Z,3.23
2019-01-15T00:52:17.490Z,2.20
2019-01-15T00:54:47.611Z,2.70
2019-01-15T00:57:17.646Z,2.93
2019-01-15T00:59:47.881Z,2.23
2019-01-15T01:02:18.488Z,3.13
2019-01-15T01:04:48.652Z,2.27
2019-01-15T01:07:19.102Z,2.20
2019-01-15T01:09:49.508Z,2.47
2019-01-15T01:12:22.336Z,2.40
2019-01-15T01:15:02.601Z,2.30
2019-01-15T01:17:32.788Z,2.37
2019-01-15T01:20:03.256Z,1.98
2019-01-15T01:22:33.602Z,2.37
2019-01-15T01:25:23.875Z,2.53
2019-01-15T01:27:54.352Z,2.40
2019-01-15T01:30:25.621Z,2.17
2019-01-15T01:32:55.722Z,2.00
2019-01-15T01:35:26.086Z,2.17
2019-01-15T01:37:56.531Z,3.10
2019-01-15T01:40:27.731Z,2.05
2019-01-15T01:42:58.122Z,2.37
2019-01-15T01:48:19.246Z,2.10
2019-01-15T01:50:49.427Z,1.97
2019-01-15T01:53:19.598Z,2.87
2019-01-15T01:55:50.057Z,2.30
2019-01-15T01:58:20.336Z,2.50
2019-01-15T02:00:50.669Z,2.77
2019-01-15T02:03:21.203Z,2.55
2019-01-15T02:05:51.553Z,2.07
2019-01-15T02:08:21.668Z,2.03
2019-01-15T02:10:52.175Z,2.10
2019-01-15T02:13:22.183Z,2.00
2019-01-15T02:15:52.311Z,2.63
2019-01-15T02:18:22.547Z,2.37
2019-01-15T02:20:52.675Z,2.37
2019-01-15T02:23:23.104Z,2.17
2019-01-15T02:25:53.614Z,2.30
2019-01-15T02:28:23.719Z,2.00
2019-01-15T02:30:54.239Z,2.27
2019-01-15T02:33:24.342Z,2.03
2019-01-15T02:35:54.586Z,1.80
2019-01-15T02:38:24.565Z,2.17
2019-01-15T02:40:54.635Z,1.98
2019-01-15T02:43:24.861Z,2.90
2019-01-15T02:45:55.286Z,3.15
2019-01-15T02:48:25.642Z,2.93
2019-01-15T02:50:55.688Z,2.67
2019-01-15T02:53:25.830Z,2.47
2019-01-15T02:55:56.275Z,2.30
2019-01-15T02:58:26.399Z,2.47
2019-01-15T03:00:56.435Z,2.37
2019-01-15T03:03:26.538Z,2.17
2019-01-15T03:05:56.636Z,2.67
2019-01-15T03:08:26.739Z,2.57
2019-01-15T03:10:57.228Z,2.42
2019-01-15T03:13:27.482Z,2.47
2019-01-15T03:15:57.690Z,1.87
2019-01-15T03:18:27.834Z,2.37
2019-01-15T03:20:58.410Z,2.10
2019-01-15T03:23:28.698Z,2.53
2019-01-15T03:25:59.274Z,2.75
2019-01-15T03:28:29.382Z,2.20
2019-01-15T03:30:59.842Z,2.80
2019-01-15T03:33:30.304Z,2.22
2019-01-15T03:36:00.624Z,2.60
2019-01-15T03:38:30.755Z,2.67
2019-01-15T03:41:20.036Z,2.40
2019-01-15T03:43:50.352Z,3.27
2019-01-15T03:46:20.430Z,2.33
2019-01-15T03:48:51.802Z,2.50
2019-01-15T03:51:22.383Z,2.30
2019-01-15T03:53:52.395Z,2.47
2019-01-15T03:56:22.852Z,2.50
2019-01-15T03:58:53.190Z,2.87
2019-01-15T04:01:23.281Z,2.03
2019-01-15T04:03:53.495Z,1.93
2019-01-15T04:06:24.617Z,2.58
2019-01-15T04:08:54.774Z,2.60
2019-01-15T04:11:25.384Z,2.30
2019-01-15T04:13:55.480Z,2.40
2019-01-15T04:16:25.644Z,2.60
2019-01-15T04:18:55.744Z,2.50
2019-01-15T04:21:26.165Z,2.25
2019-01-15T04:23:56.611Z,2.00
2019-01-15T04:26:26.919Z,3.00
2019-01-15T04:28:57.400Z,2.30
2019-01-15T04:31:27.630Z,2.90
2019-01-15T04:33:58.143Z,2.47
2019-01-15T04:36:28.503Z,2.10
2019-01-15T04:38:58.518Z,2.33
2019-01-15T04:41:28.727Z,2.70
2019-01-15T04:43:59.157Z,2.72
2019-01-15T04:46:29.269Z,3.33
2019-01-15T04:48:59.371Z,3.37
2019-01-15T04:51:29.591Z,2.53
2019-01-15T04:53:59.610Z,2.37
2019-01-15T04:56:30.109Z,2.60
2019-01-15T04:59:20.811Z,3.05
2019-01-15T05:01:51.342Z,2.47
2019-01-15T05:04:21.540Z,2.97
2019-01-15T05:06:51.756Z,2.63
2019-01-15T05:09:22.299Z,2.45
2019-01-15T05:11:52.525Z,2.77
2019-01-15T05:14:22.737Z,2.97
2019-01-15T05:16:53.212Z,3.20
2019-01-15T05:19:23.608Z,2.53
2019-01-15T05:21:53.678Z,2.33
2019-01-15T05:24:24.191Z,2.75
2019-01-15T05:26:54.631Z,3.20
2019-01-15T05:29:24.981Z,3.20
2019-01-15T05:31:55.338Z,2.60
2019-01-15T05:34:25.355Z,2.93
2019-01-15T05:36:55.400Z,2.63
2019-01-15T05:39:25.911Z,2.20
2019-01-15T05:41:56.308Z,3.42
2019-01-15T05:44:26.469Z,2.63
2019-01-15T05:46:56.560Z,2.80
2019-01-15T05:49:26.657Z,2.47
2019-01-15T05:51:56.957Z,3.52
2019-01-15T05:54:46.239Z,2.77
2019-01-15T05:57:16.818Z,2.47
2019-01-15T05:59:47.305Z,2.47
2019-01-15T06:02:17.556Z,2.43
2019-01-15T06:04:47.809Z,2.33
2019-01-15T06:07:18.313Z,2.83
2019-01-15T06:09:48.555Z,2.27
2019-01-15T06:12:18.810Z,2.90
2019-01-15T06:14:49.711Z,3.02
2019-01-15T06:17:20.336Z,2.70
2019-01-15T06:19:50.478Z,2.50
2019-01-15T06:22:20.596Z,2.70
2019-01-15T06:24:50.869Z,3.50
2019-01-15T06:27:21.256Z,3.40
2019-01-15T06:29:51.251Z,3.00
2019-01-15T06:32:21.345Z,3.30
2019-01-15T06:34:51.462Z,4.30
2019-01-15T06:37:21.522Z,3.77
2019-01-15T06:39:51.590Z,3.57
2019-01-15T06:42:21.782Z,3.20
2019-01-15T06:45:31.172Z,3.60
2019-01-15T06:48:01.510Z,3.67
2019-01-15T06:50:31.606Z,3.47
2019-01-15T06:53:01.819Z,3.03
2019-01-15T06:55:32.384Z,4.27
2019-01-15T06:58:02.379Z,2.87
2019-01-15T07:00:32.743Z,3.50
2019-01-15T07:03:03.087Z,3.57
2019-01-15T07:05:33.372Z,3.20
2019-01-15T07:08:03.641Z,3.83
2019-01-15T07:10:36.070Z,3.27
2019-01-15T07:13:06.728Z,4.00
2019-01-15T07:15:37.330Z,3.52
2019-01-15T07:18:07.499Z,3.33
2019-01-15T07:20:37.695Z,4.10
2019-01-15T07:23:08.287Z,3.42
2019-01-15T07:25:38.782Z,3.77
2019-01-15T07:28:28.697Z,3.77
2019-01-15T07:31:01.015Z,3.55
2019-01-15T07:33:32.084Z,3.80
2019-01-15T07:36:02.517Z,3.87
2019-01-15T07:38:32.758Z,3.00
2019-01-15T07:41:03.294Z,3.40
2019-01-15T07:43:33.503Z,3.23
2019-01-15T07:46:03.883Z,2.67
2019-01-15T07:48:34.289Z,3.43
2019-01-15T07:51:04.571Z,3.30
2019-01-15T07:53:34.782Z,3.17
2019-01-15T07:56:05.219Z,3.62
2019-01-15T07:58:35.452Z,4.03
2019-01-15T08:01:07.409Z,3.73
2019-01-15T08:03:37.712Z,4.00
2019-01-15T08:06:08.203Z,3.80
2019-01-15T08:08:38.430Z,4.30
2019-01-15T08:11:08.519Z,5.00
2019-01-15T08:13:38.778Z,4.93
2019-01-15T08:16:28.337Z,4.23
2019-01-15T08:18:58.558Z,3.53
2019-01-15T08:21:28.651Z,3.90
2019-01-15T08:23:58.807Z,4.53
2019-01-15T08:26:29.339Z,4.17
2019-01-15T08:28:59.539Z,3.47
2019-01-15T08:31:38.352Z,3.22
2019-01-15T08:34:08.633Z,3.30
2019-01-15T08:36:38.996Z,3.30
2019-01-15T08:39:10.057Z,3.30
2019-01-15T08:41:40.387Z,3.93
2019-01-15T08:44:10.462Z,3.03
2019-01-15T08:46:40.536Z,3.67
2019-01-15T08:49:10.727Z,3.23
2019-01-15T08:54:32.295Z,4.08
2019-01-15T08:57:02.499Z,3.57
2019-01-15T08:59:32.520Z,3.20
2019-01-15T09:02:02.808Z,3.17
2019-01-15T09:04:33.370Z,4.33
2019-01-15T09:07:03.836Z,4.90
2019-01-15T09:09:34.338Z,5.00
2019-01-15T09:12:04.819Z,4.30
2019-01-15T09:14:35.301Z,5.03
2019-01-15T09:17:10.966Z,4.50
2019-01-15T09:19:37.606Z,5.90
2019-01-15T09:22:07.739Z,5.83
2019-01-15T09:24:39.802Z,5.05
2019-01-15T09:27:10.780Z,4.87
2019-01-15T09:30:00.289Z,4.80
2019-01-15T09:32:30.435Z,4.87
2019-01-15T09:35:00.556Z,5.60
2019-01-15T09:37:30.855Z,4.43
2019-01-15T09:40:01.180Z,4.83
2019-01-15T09:42:31.188Z,4.20
2019-01-15T09:45:01.705Z,4.43
2019-01-15T09:50:22.829Z,4.63
2019-01-15T09:52:53.564Z,4.40
2019-01-15T09:55:23.777Z,4.47
2019-01-15T09:57:54.410Z,4.08
2019-01-15T10:00:24.614Z,4.27
2019-01-15T10:02:54.988Z,4.80
2019-01-15T10:05:25.461Z,4.30
2019-01-15T10:07:55.636Z,3.90
2019-01-15T10:10:25.725Z,4.20
2019-01-15T10:13:15.073Z,4.12
2019-01-15T10:15:45.453Z,4.50
2019-01-15T10:18:15.733Z,4.33
2019-01-15T10:20:47.306Z,4.60
2019-01-15T10:23:17.510Z,4.20
2019-01-15T10:25:47.727Z,4.50
2019-01-15T10:28:18.366Z,3.83
2019-01-15T10:31:26.290Z,4.07
2019-01-15T10:39:34.808Z,3.73
2019-01-15T10:42:05.464Z,3.27
2019-01-15T10:44:35.582Z,3.53
2019-01-15T10:47:05.906Z,3.57
2019-01-15T10:49:36.295Z,3.77
2019-01-15T10:52:06.509Z,3.43
2019-01-15T10:54:36.716Z,3.47
2019-01-15T10:57:06.860Z,4.03
2019-01-15T10:59:37.387Z,4.27
2019-01-15T11:02:07.846Z,3.27
2019-01-15T11:04:59.682Z,2.92
2019-01-15T11:07:30.217Z,3.47
2019-01-15T11:10:00.605Z,3.67
2019-01-15T11:12:30.617Z,3.13
2019-01-15T11:15:01.139Z,3.47
2019-01-15T11:17:31.425Z,3.53
2019-01-15T11:20:01.680Z,3.63
2019-01-15T11:22:32.012Z,2.93
2019-01-15T11:25:02.343Z,3.52
2019-01-15T11:27:32.607Z,4.10
2019-01-15T11:30:02.822Z,3.40
2019-01-15T11:32:33.409Z,3.23
2019-01-15T11:35:03.443Z,3.60
2019-01-15T11:37:34.104Z,3.70
2019-01-15T11:43:14.330Z,4.10
2019-01-15T11:45:44.485Z,4.30
2019-01-15T11:48:14.733Z,4.15
2019-01-15T11:50:45.204Z,3.77
2019-01-15T11:53:15.577Z,3.60
2019-01-15T11:55:45.829Z,4.33
2019-01-15T11:58:17.793Z,3.20
2019-01-15T12:01:07.674Z,4.35
2019-01-15T12:03:56.682Z,4.07
2019-01-15T12:06:45.874Z,3.70
2019-01-15T12:09:35.569Z,3.47
2019-01-15T12:12:24.599Z,4.00
2019-01-15T12:15:32.467Z,3.63
2019-01-15T12:18:21.375Z,3.83
2019-01-15T12:21:10.709Z,4.17
2019-01-15T12:23:54.609Z,4.07
2019-01-15T12:26:43.803Z,4.30
2019-01-15T12:29:33.333Z,4.70
2019-01-15T12:32:22.354Z,4.27
2019-01-15T12:35:11.174Z,4.30
2019-01-15T12:38:00.525Z,3.90
2019-01-15T12:40:49.661Z,4.30
2019-01-15T12:43:38.773Z,4.27
2019-01-15T12:46:28.087Z,3.40
2019-01-15T12:49:10.642Z,3.93
2019-01-15T12:52:20.306Z,4.53
2019-01-15T12:55:09.275Z,9.40
2019-01-15T12:57:53.926Z,6.03
2019-01-15T13:00:43.309Z,5.62
2019-01-15T13:03:32.141Z,3.90
2019-01-15T13:06:21.341Z,4.90
2019-01-15T13:09:10.278Z,4.03
2019-01-15T13:11:59.424Z,3.93
2019-01-15T13:14:48.403Z,3.63
2019-01-15T13:17:37.261Z,3.95
2019-01-15T13:20:28.553Z,3.80
2019-01-15T13:23:05.859Z,3.80
2019-01-15T13:25:45.915Z,3.50
2019-01-15T13:28:35.219Z,3.40
2019-01-15T13:31:24.212Z,4.20
2019-01-15T13:34:13.387Z,4.07
2019-01-15T13:36:53.753Z,4.80
2019-01-15T15:12:02.171Z,6.50
2019-01-15T15:14:51.202Z,7.57
2019-01-15T15:17:40.432Z,6.83
2019-01-15T15:20:29.855Z,7.97
2019-01-15T15:23:19.256Z,8.23
2019-01-15T15:25:56.530Z,6.80
2019-01-15T15:28:45.447Z,7.60
2019-01-15T15:31:34.357Z,6.93
2019-01-15T15:34:23.718Z,6.57
2019-01-15T15:37:12.765Z,6.33
2019-01-15T15:40:02.075Z,7.05
2019-01-15T15:42:51.410Z,8.93
2019-01-15T15:45:41.049Z,10.10
2019-01-15T15:50:08.217Z,8.17
2019-01-15T15:51:21.136Z,6.83
2019-01-15T15:54:10.203Z,7.90
2019-01-15T15:56:59.317Z,6.97
2019-01-15T15:59:48.303Z,6.60
2019-01-15T16:02:37.463Z,6.13
2019-01-15T16:05:28.194Z,6.37
2019-01-15T16:08:08.580Z,6.47
2019-01-15T16:10:57.701Z,6.30
2019-01-15T16:13:47.070Z,6.42
2019-01-15T16:16:36.384Z,6.50
2019-01-15T16:19:25.642Z,6.40
2019-01-15T16:22:14.903Z,6.15
2019-01-15T16:25:04.197Z,6.60
2019-01-15T16:27:45.263Z,6.80
2019-01-15T16:30:34.834Z,6.63
2019-01-15T16:33:24.738Z,6.30
2019-01-15T16:36:28.519Z,6.10
2019-01-15T16:39:05.530Z,6.03
2019-01-15T16:41:54.665Z,5.93
2019-01-15T16:44:43.585Z,5.33
2019-01-15T16:47:32.556Z,6.20
2019-01-15T16:50:21.625Z,6.00
2019-01-15T16:53:10.833Z,5.53
2019-01-15T16:56:00.113Z,5.97
2019-01-15T16:58:49.247Z,6.50
2019-01-15T17:01:38.512Z,6.80
2019-01-15T17:04:28.175Z,6.10
2019-01-15T17:07:17.382Z,5.30
2019-01-15T17:10:06.468Z,5.50
2019-01-15T17:13:06.549Z,5.73
2019-01-15T17:15:55.623Z,5.60
2019-01-15T17:18:44.559Z,5.70
2019-01-15T17:21:33.712Z,5.70
2019-01-15T17:24:23.087Z,5.67
2019-01-15T17:27:12.445Z,6.70
2019-01-15T17:30:01.515Z,6.08
2019-01-15T17:32:50.564Z,5.33
2019-01-15T17:35:39.488Z,5.20
2019-01-15T17:38:24.378Z,6.40
2019-01-15T17:41:13.222Z,4.97
2019-01-15T17:44:04.479Z,4.90
2019-01-15T17:46:53.341Z,5.37
2019-01-15T17:49:42.427Z,5.33
2019-01-15T17:52:31.587Z,5.30
2019-01-15T17:55:20.675Z,4.63
2019-01-15T17:58:10.914Z,5.40
2019-01-15T18:01:00.447Z,6.20
2019-01-15T18:03:53.319Z,5.30
2019-01-15T18:06:41.569Z,5.97
2019-01-15T18:09:31.412Z,5.17
2019-01-15T18:12:23.927Z,5.73
2019-01-15T18:15:13.206Z,4.60
2019-01-15T18:18:02.266Z,4.17
2019-01-15T18:20:51.325Z,4.23
2019-01-15T18:23:40.603Z,5.90
2019-01-15T18:26:29.781Z,4.10
2019-01-15T18:29:18.972Z,3.90
2019-01-15T18:35:14.753Z,3.83
2019-01-15T18:38:04.218Z,4.30
2019-01-15T18:40:54.654Z,3.90
2019-01-15T18:43:43.610Z,4.30
2019-01-15T18:46:23.119Z,4.20
2019-01-15T18:49:12.428Z,4.80
2019-01-15T18:52:01.452Z,4.27
2019-01-15T18:54:50.395Z,4.67
2019-01-15T18:57:39.523Z,6.40
2019-01-15T19:00:31.981Z,4.80
2019-01-15T19:03:21.293Z,4.33
2019-01-15T19:06:22.320Z,5.67
2019-01-15T19:09:05.470Z,4.97
2019-01-15T19:11:48.132Z,5.10
2019-01-15T19:14:37.489Z,5.27
2019-01-15T19:17:20.278Z,5.17
2019-01-15T19:20:09.283Z,5.43
2019-01-15T19:22:58.180Z,5.97
2019-01-15T19:25:47.357Z,5.23
2019-01-15T19:28:36.652Z,5.30
2019-01-15T19:34:19.490Z,5.80
2019-01-15T19:37:08.511Z,6.23
2019-01-15T19:39:57.465Z,5.57
2019-01-15T19:42:46.366Z,6.23
2019-01-15T19:45:35.548Z,5.90
2019-01-15T19:48:25.569Z,6.35
2019-01-15T19:51:14.558Z,5.43
2019-01-15T19:54:03.566Z,6.57
2019-01-15T19:56:52.606Z,6.13
2019-01-15T19:59:41.969Z,6.20
2019-01-15T20:02:31.243Z,6.13
2019-01-15T20:05:20.282Z,7.20
2019-01-15T20:08:09.528Z,7.17
2019-01-15T20:10:58.658Z,7.07
2019-01-15T20:13:47.664Z,7.23
2019-01-15T20:16:35.752Z,7.27
2019-01-15T20:19:25.441Z,7.08
2019-01-15T20:22:14.823Z,7.60
2019-01-15T20:28:07.215Z,6.80
2019-01-15T20:33:56.541Z,7.90
2019-01-15T20:36:46.146Z,7.87
2019-01-15T20:39:35.408Z,7.40
2019-01-15T20:42:24.380Z,8.10
2019-01-15T20:45:13.789Z,8.17
2019-01-15T20:48:14.710Z,7.78
2019-01-15T20:51:04.038Z,8.75
2019-01-15T20:53:53.201Z,8.80
2019-01-15T20:56:44.767Z,9.17
2019-01-15T20:59:36.606Z,8.85
2019-01-15T21:02:24.719Z,8.80
2019-01-15T21:05:13.681Z,9.43
2019-01-15T21:08:21.806Z,9.47
2019-01-15T21:11:11.131Z,9.13
2019-01-15T21:14:19.362Z,9.10
2019-01-15T21:17:08.288Z,9.37
2019-01-15T21:19:57.264Z,9.67
2019-01-15T21:22:46.294Z,9.33
2019-01-15T21:25:35.718Z,8.73
2019-01-15T21:31:34.102Z,9.20
2019-01-15T21:34:23.546Z,9.03
2019-01-15T21:37:12.529Z,8.43
2019-01-15T21:40:01.395Z,8.20
2019-01-15T21:42:50.615Z,8.40
2019-01-15T21:45:39.669Z,8.63
2019-01-15T21:48:28.971Z,8.45
2019-01-15T21:51:18.233Z,8.45
2019-01-15T21:54:07.824Z,9.10
2019-01-15T21:56:57.049Z,8.53
2019-01-15T21:59:46.226Z,8.73
2019-01-15T22:02:35.632Z,8.90
2019-01-15T22:05:48.780Z,8.67
2019-01-15T22:08:35.099Z,8.43
2019-01-15T22:11:24.961Z,8.30
2019-01-15T22:14:14.139Z,7.78
2019-01-15T22:17:07.454Z,8.60
2019-01-15T22:20:14.462Z,8.13
2019-01-15T22:23:03.555Z,8.23
2019-01-15T22:26:11.358Z,8.48
2019-01-15T22:29:00.283Z,8.90
2019-01-15T22:31:38.049Z,8.73
2019-01-15T22:34:19.294Z,8.40
2019-01-15T22:37:09.410Z,8.53
2019-01-15T22:39:58.577Z,8.20
2019-01-15T22:42:48.366Z,8.68
2019-01-15T22:45:37.551Z,8.83
2019-01-15T22:48:26.459Z,8.17
2019-01-15T22:51:15.597Z,7.90
2019-01-15T22:54:05.045Z,8.70
2019-01-15T22:56:54.379Z,8.07
2019-01-15T22:59:43.554Z,7.97
2019-01-15T23:05:34.338Z,7.57
2019-01-15T23:08:23.024Z,7.20
2019-01-15T23:11:11.942Z,7.77
2019-01-15T23:14:01.190Z,7.33
2019-01-15T23:17:02.828Z,7.97
2019-01-15T23:19:51.916Z,7.57
2019-01-15T23:22:41.153Z,7.25
2019-01-15T23:25:30.110Z,7.37
2019-01-15T23:28:19.292Z,7.40
2019-01-15T23:31:08.133Z,7.47
2019-01-15T23:33:47.700Z,8.07
2019-01-15T23:36:36.891Z,7.67
2019-01-15T23:39:47.350Z,7.03
2019-01-15T23:42:36.311Z,7.20
2019-01-15T23:45:45.935Z,7.03
2019-01-15T23:48:36.172Z,7.33
2019-01-15T23:51:26.464Z,6.55
2019-01-15T23:54:15.419Z,7.80
2019-01-15T23:57:04.398Z,7.70
2019-01-15T23:59:53.285Z,7.80
